sensor_id;sensor_type;location;lat;lon;timestamp;temperature;humidity
3256;DHT22;1640;48.504;9.224;2022-11-25T00:02:05;1.70;99.90
3256;DHT22;1640;48.504;9.224;2022-11-25T00:04:34;1.70;99.90
3256;DHT22;1640;48.504;9.224;2022-11-25T00:07:01;1.70;99.90
3256;DHT22;1640;48.504;9.224;2022-11-25T00:09:29;1.70;99.90
3256;DHT22;1640;48.504;9.224;2022-11-25T00:11:56;1.60;99.90
3256;DHT22;1640;48.504;9.224;2022-11-25T00:14:24;1.60;99.90
3256;DHT22;1640;48.504;9.224;2022-11-25T00:16:51;1.60;99.90
3256;DHT22;1640;48.504;9.224;2022-11-25T00:19:19;1.60;99.90
3256;DHT22;1640;48.504;9.224;2022-11-25T00:21:47;1.60;99.90
3256;DHT22;1640;48.504;9.224;2022-11-25T00:24:15;1.50;99.90
3256;DHT22;1640;48.504;9.224;2022-11-25T00:26:43;1.50;99.90
3256;DHT22;1640;48.504;9.224;2022-11-25T00:29:11;1.50;99.90
3256;DHT22;1640;48.504;9.224;2022-11-25T00:31:39;1.50;99.90
3256;DHT22;1640;48.504;9.224;2022-11-25T00:34:11;1.50;99.90
3256;DHT22;1640;48.504;9.224;2022-11-25T00:36:38;1.40;99.90
3256;DHT22;1640;48.504;9.224;2022-11-25T00:39:10;1.40;99.90
3256;DHT22;1640;48.504;9.224;2022-11-25T00:41:39;1.40;99.90
3256;DHT22;1640;48.504;9.224;2022-11-25T00:44:23;1.40;99.90
3256;DHT22;1640;48.504;9.224;2022-11-25T00:47:04;1.30;99.90
3256;DHT22;1640;48.504;9.224;2022-11-25T00:49:32;1.40;99.90
3256;DHT22;1640;48.504;9.224;2022-11-25T00:51:59;1.40;99.90
3256;DHT22;1640;48.504;9.224;2022-11-25T00:54:28;1.40;99.90
3256;DHT22;1640;48.504;9.224;2022-11-25T00:56:56;1.50;99.90
3256;DHT22;1640;48.504;9.224;2022-11-25T00:59:24;1.50;99.90
3256;DHT22;1640;48.504;9.224;2022-11-25T01:01:52;1.60;99.90
3256;DHT22;1640;48.504;9.224;2022-11-25T01:04:19;1.60;99.90
3256;DHT22;1640;48.504;9.224;2022-11-25T01:06:47;1.70;99.90
3256;DHT22;1640;48.504;9.224;2022-11-25T01:09:14;1.70;99.90
3256;DHT22;1640;48.504;9.224;2022-11-25T01:11:43;1.80;99.90
3256;DHT22;1640;48.504;9.224;2022-11-25T01:14:11;1.80;99.90
3256;DHT22;1640;48.504;9.224;2022-11-25T01:16:38;1.80;99.90
3256;DHT22;1640;48.504;9.224;2022-11-25T01:19:05;1.80;99.90
3256;DHT22;1640;48.504;9.224;2022-11-25T01:21:33;1.90;99.90
3256;DHT22;1640;48.504;9.224;2022-11-25T01:24:02;2.00;99.90
3256;DHT22;1640;48.504;9.224;2022-11-25T01:26:31;2.10;99.90
3256;DHT22;1640;48.504;9.224;2022-11-25T01:29:02;2.20;99.90
3256;DHT22;1640;48.504;9.224;2022-11-25T01:31:32;2.20;99.90
3256;DHT22;1640;48.504;9.224;2022-11-25T01:34:01;2.30;99.90
3256;DHT22;1640;48.504;9.224;2022-11-25T01:36:29;2.40;99.90
3256;DHT22;1640;48.504;9.224;2022-11-25T01:38:58;2.40;99.90
3256;DHT22;1640;48.504;9.224;2022-11-25T01:41:29;2.50;99.90
3256;DHT22;1640;48.504;9.224;2022-11-25T01:44:11;2.50;99.90
3256;DHT22;1640;48.504;9.224;2022-11-25T01:46:49;2.60;99.90
3256;DHT22;1640;48.504;9.224;2022-11-25T01:49:20;2.70;99.90
3256;DHT22;1640;48.504;9.224;2022-11-25T01:51:54;2.80;99.90
3256;DHT22;1640;48.504;9.224;2022-11-25T01:54:25;2.80;99.90
3256;DHT22;1640;48.504;9.224;2022-11-25T01:56:55;2.80;99.90
3256;DHT22;1640;48.504;9.224;2022-11-25T01:59:27;2.90;99.90
3256;DHT22;1640;48.504;9.224;2022-11-25T02:01:56;2.90;99.90
3256;DHT22;1640;48.504;9.224;2022-11-25T02:04:30;2.90;99.90
3256;DHT22;1640;48.504;9.224;2022-11-25T02:07:02;2.80;99.90
3256;DHT22;1640;48.504;9.224;2022-11-25T02:09:33;2.80;99.90
3256;DHT22;1640;48.504;9.224;2022-11-25T02:12:01;2.80;99.90
3256;DHT22;1640;48.504;9.224;2022-11-25T02:14:30;2.80;99.90
3256;DHT22;1640;48.504;9.224;2022-11-25T02:16:59;2.70;99.90
3256;DHT22;1640;48.504;9.224;2022-11-25T02:19:38;2.70;99.90
3256;DHT22;1640;48.504;9.224;2022-11-25T02:22:17;2.70;99.90
3256;DHT22;1640;48.504;9.224;2022-11-25T02:24:52;2.80;99.90
3256;DHT22;1640;48.504;9.224;2022-11-25T02:27:23;2.80;99.90
3256;DHT22;1640;48.504;9.224;2022-11-25T02:29:51;2.80;99.90
3256;DHT22;1640;48.504;9.224;2022-11-25T02:32:21;2.80;99.90
3256;DHT22;1640;48.504;9.224;2022-11-25T02:34:49;2.80;99.90
3256;DHT22;1640;48.504;9.224;2022-11-25T02:37:18;2.70;99.90
3256;DHT22;1640;48.504;9.224;2022-11-25T02:39:48;2.70;99.90
3256;DHT22;1640;48.504;9.224;2022-11-25T02:42:18;2.70;99.90
3256;DHT22;1640;48.504;9.224;2022-11-25T02:44:48;2.70;99.90
3256;DHT22;1640;48.504;9.224;2022-11-25T02:47:16;2.60;99.90
3256;DHT22;1640;48.504;9.224;2022-11-25T02:49:43;2.60;99.90
3256;DHT22;1640;48.504;9.224;2022-11-25T02:52:11;2.50;99.90
3256;DHT22;1640;48.504;9.224;2022-11-25T02:54:38;2.50;99.90
3256;DHT22;1640;48.504;9.224;2022-11-25T02:57:06;2.50;99.90
3256;DHT22;1640;48.504;9.224;2022-11-25T02:59:33;2.50;99.90
3256;DHT22;1640;48.504;9.224;2022-11-25T03:02:02;2.40;99.90
3256;DHT22;1640;48.504;9.224;2022-11-25T03:04:29;2.40;99.90
3256;DHT22;1640;48.504;9.224;2022-11-25T03:06:57;2.40;99.90
3256;DHT22;1640;48.504;9.224;2022-11-25T03:09:24;2.20;99.90
3256;DHT22;1640;48.504;9.224;2022-11-25T03:11:52;2.10;99.90
3256;DHT22;1640;48.504;9.224;2022-11-25T03:14:36;2.10;99.90
3256;DHT22;1640;48.504;9.224;2022-11-25T03:17:05;2.00;99.90
3256;DHT22;1640;48.504;9.224;2022-11-25T03:19:33;2.00;99.90
3256;DHT22;1640;48.504;9.224;2022-11-25T03:22:00;2.00;99.90
3256;DHT22;1640;48.504;9.224;2022-11-25T03:24:28;2.10;99.90
3256;DHT22;1640;48.504;9.224;2022-11-25T03:26:55;2.10;99.90
3256;DHT22;1640;48.504;9.224;2022-11-25T03:29:23;2.10;99.90
3256;DHT22;1640;48.504;9.224;2022-11-25T03:31:50;2.20;99.90
3256;DHT22;1640;48.504;9.224;2022-11-25T03:34:19;2.20;99.90
3256;DHT22;1640;48.504;9.224;2022-11-25T03:36:46;2.20;99.90
3256;DHT22;1640;48.504;9.224;2022-11-25T03:39:14;2.30;99.90
3256;DHT22;1640;48.504;9.224;2022-11-25T03:41:41;2.20;99.90
3256;DHT22;1640;48.504;9.224;2022-11-25T03:44:09;2.20;99.90
3256;DHT22;1640;48.504;9.224;2022-11-25T03:46:36;2.20;99.90
3256;DHT22;1640;48.504;9.224;2022-11-25T03:49:04;2.30;99.90
3256;DHT22;1640;48.504;9.224;2022-11-25T03:51:32;2.30;99.90
3256;DHT22;1640;48.504;9.224;2022-11-25T03:54:00;2.30;99.90
3256;DHT22;1640;48.504;9.224;2022-11-25T03:56:27;2.30;99.90
3256;DHT22;1640;48.504;9.224;2022-11-25T03:58:55;2.30;99.90
3256;DHT22;1640;48.504;9.224;2022-11-25T04:01:22;2.30;99.90
3256;DHT22;1640;48.504;9.224;2022-11-25T04:03:49;2.30;99.90
3256;DHT22;1640;48.504;9.224;2022-11-25T04:06:17;2.40;99.90
3256;DHT22;1640;48.504;9.224;2022-11-25T04:08:48;2.40;99.90
3256;DHT22;1640;48.504;9.224;2022-11-25T04:11:15;2.40;99.90
3256;DHT22;1640;48.504;9.224;2022-11-25T04:13:43;2.40;99.90
3256;DHT22;1640;48.504;9.224;2022-11-25T04:16:17;2.40;99.90
3256;DHT22;1640;48.504;9.224;2022-11-25T04:18:45;2.50;99.90
3256;DHT22;1640;48.504;9.224;2022-11-25T04:21:13;2.50;99.90
3256;DHT22;1640;48.504;9.224;2022-11-25T04:23:40;2.60;99.90
3256;DHT22;1640;48.504;9.224;2022-11-25T04:26:09;2.60;99.90
3256;DHT22;1640;48.504;9.224;2022-11-25T04:28:37;2.60;99.90
3256;DHT22;1640;48.504;9.224;2022-11-25T04:31:05;2.60;99.90
3256;DHT22;1640;48.504;9.224;2022-11-25T04:33:33;2.60;99.90
3256;DHT22;1640;48.504;9.224;2022-11-25T04:36:00;2.60;99.90
3256;DHT22;1640;48.504;9.224;2022-11-25T04:38:28;2.70;99.90
3256;DHT22;1640;48.504;9.224;2022-11-25T04:40:55;2.70;99.90
3256;DHT22;1640;48.504;9.224;2022-11-25T04:43:24;2.70;99.90
3256;DHT22;1640;48.504;9.224;2022-11-25T04:45:51;2.60;99.90
3256;DHT22;1640;48.504;9.224;2022-11-25T04:48:19;2.60;99.90
3256;DHT22;1640;48.504;9.224;2022-11-25T04:50:47;2.60;99.90
3256;DHT22;1640;48.504;9.224;2022-11-25T04:53:14;2.50;99.90
3256;DHT22;1640;48.504;9.224;2022-11-25T04:55:43;2.50;99.90
3256;DHT22;1640;48.504;9.224;2022-11-25T04:58:10;2.40;99.90
3256;DHT22;1640;48.504;9.224;2022-11-25T05:00:39;2.40;99.90
3256;DHT22;1640;48.504;9.224;2022-11-25T05:03:06;2.30;99.90
3256;DHT22;1640;48.504;9.224;2022-11-25T05:05:33;2.30;99.90
3256;DHT22;1640;48.504;9.224;2022-11-25T05:08:01;2.30;99.90
3256;DHT22;1640;48.504;9.224;2022-11-25T05:10:28;2.30;99.90
3256;DHT22;1640;48.504;9.224;2022-11-25T05:12:56;2.20;99.90
3256;DHT22;1640;48.504;9.224;2022-11-25T05:15:23;2.10;99.90
3256;DHT22;1640;48.504;9.224;2022-11-25T05:17:52;2.00;99.90
3256;DHT22;1640;48.504;9.224;2022-11-25T05:20:19;2.00;99.90
3256;DHT22;1640;48.504;9.224;2022-11-25T05:22:48;1.90;99.90
3256;DHT22;1640;48.504;9.224;2022-11-25T05:25:15;1.80;99.90
3256;DHT22;1640;48.504;9.224;2022-11-25T05:27:45;1.80;99.90
3256;DHT22;1640;48.504;9.224;2022-11-25T05:30:14;1.70;99.90
3256;DHT22;1640;48.504;9.224;2022-11-25T05:32:41;1.60;99.90
3256;DHT22;1640;48.504;9.224;2022-11-25T05:35:11;1.60;99.90
3256;DHT22;1640;48.504;9.224;2022-11-25T05:37:38;1.50;99.90
3256;DHT22;1640;48.504;9.224;2022-11-25T05:40:07;1.50;99.90
3256;DHT22;1640;48.504;9.224;2022-11-25T05:42:34;1.50;99.90
3256;DHT22;1640;48.504;9.224;2022-11-25T05:45:02;1.60;99.90
3256;DHT22;1640;48.504;9.224;2022-11-25T05:47:30;1.60;99.90
3256;DHT22;1640;48.504;9.224;2022-11-25T05:49:57;1.70;99.90
3256;DHT22;1640;48.504;9.224;2022-11-25T05:52:26;1.80;99.90
3256;DHT22;1640;48.504;9.224;2022-11-25T05:54:53;1.90;99.90
3256;DHT22;1640;48.504;9.224;2022-11-25T05:57:21;2.00;99.90
3256;DHT22;1640;48.504;9.224;2022-11-25T05:59:48;2.00;99.90
3256;DHT22;1640;48.504;9.224;2022-11-25T06:02:16;2.00;99.90
3256;DHT22;1640;48.504;9.224;2022-11-25T06:04:43;2.00;99.90
3256;DHT22;1640;48.504;9.224;2022-11-25T06:07:10;1.90;99.90
3256;DHT22;1640;48.504;9.224;2022-11-25T06:09:39;1.90;99.90
3256;DHT22;1640;48.504;9.224;2022-11-25T06:12:07;1.80;99.90
3256;DHT22;1640;48.504;9.224;2022-11-25T06:14:34;1.80;99.90
3256;DHT22;1640;48.504;9.224;2022-11-25T06:17:01;1.70;99.90
3256;DHT22;1640;48.504;9.224;2022-11-25T06:19:29;1.70;99.90
3256;DHT22;1640;48.504;9.224;2022-11-25T06:21:56;1.70;99.90
3256;DHT22;1640;48.504;9.224;2022-11-25T06:24:24;1.60;99.90
3256;DHT22;1640;48.504;9.224;2022-11-25T06:26:53;1.60;99.90
3256;DHT22;1640;48.504;9.224;2022-11-25T06:29:20;1.60;99.90
3256;DHT22;1640;48.504;9.224;2022-11-25T06:31:48;1.60;99.90
3256;DHT22;1640;48.504;9.224;2022-11-25T06:34:15;1.60;99.90
3256;DHT22;1640;48.504;9.224;2022-11-25T06:36:43;1.70;99.90
3256;DHT22;1640;48.504;9.224;2022-11-25T06:39:10;1.70;99.90
3256;DHT22;1640;48.504;9.224;2022-11-25T06:41:38;1.70;99.90
3256;DHT22;1640;48.504;9.224;2022-11-25T06:44:07;1.80;99.90
3256;DHT22;1640;48.504;9.224;2022-11-25T06:46:34;1.80;99.90
3256;DHT22;1640;48.504;9.224;2022-11-25T06:49:01;1.90;99.90
3256;DHT22;1640;48.504;9.224;2022-11-25T06:51:30;2.00;99.90
3256;DHT22;1640;48.504;9.224;2022-11-25T06:53:57;2.00;99.90
3256;DHT22;1640;48.504;9.224;2022-11-25T06:56:26;2.10;99.90
3256;DHT22;1640;48.504;9.224;2022-11-25T06:58:54;2.10;99.90
3256;DHT22;1640;48.504;9.224;2022-11-25T07:01:25;2.20;99.90
3256;DHT22;1640;48.504;9.224;2022-11-25T07:03:54;2.30;99.90
3256;DHT22;1640;48.504;9.224;2022-11-25T07:06:22;2.50;99.90
3256;DHT22;1640;48.504;9.224;2022-11-25T07:08:49;2.60;99.90
3256;DHT22;1640;48.504;9.224;2022-11-25T07:11:19;2.70;99.90
3256;DHT22;1640;48.504;9.224;2022-11-25T07:13:49;2.70;99.90
3256;DHT22;1640;48.504;9.224;2022-11-25T07:16:17;2.70;99.90
3256;DHT22;1640;48.504;9.224;2022-11-25T07:18:46;2.80;99.90
3256;DHT22;1640;48.504;9.224;2022-11-25T07:21:16;2.80;99.90
3256;DHT22;1640;48.504;9.224;2022-11-25T07:23:44;2.90;99.90
3256;DHT22;1640;48.504;9.224;2022-11-25T07:26:14;3.00;99.90
3256;DHT22;1640;48.504;9.224;2022-11-25T07:28:42;3.00;99.90
3256;DHT22;1640;48.504;9.224;2022-11-25T07:31:16;3.10;99.90
3256;DHT22;1640;48.504;9.224;2022-11-25T07:33:46;3.30;99.90
3256;DHT22;1640;48.504;9.224;2022-11-25T07:36:14;3.40;99.90
3256;DHT22;1640;48.504;9.224;2022-11-25T07:38:41;3.40;99.90
3256;DHT22;1640;48.504;9.224;2022-11-25T07:41:10;3.40;99.90
3256;DHT22;1640;48.504;9.224;2022-11-25T07:43:38;3.40;99.90
3256;DHT22;1640;48.504;9.224;2022-11-25T07:46:10;3.40;99.90
3256;DHT22;1640;48.504;9.224;2022-11-25T07:48:39;3.50;99.90
3256;DHT22;1640;48.504;9.224;2022-11-25T07:51:14;3.40;99.90
3256;DHT22;1640;48.504;9.224;2022-11-25T07:53:42;3.50;99.90
3256;DHT22;1640;48.504;9.224;2022-11-25T07:56:10;3.50;99.90
3256;DHT22;1640;48.504;9.224;2022-11-25T07:58:37;3.50;99.90
3256;DHT22;1640;48.504;9.224;2022-11-25T08:01:07;3.50;99.90
3256;DHT22;1640;48.504;9.224;2022-11-25T08:03:36;3.50;99.90
3256;DHT22;1640;48.504;9.224;2022-11-25T08:06:06;3.60;99.90
3256;DHT22;1640;48.504;9.224;2022-11-25T08:08:35;3.60;99.90
3256;DHT22;1640;48.504;9.224;2022-11-25T08:11:05;3.70;99.90
3256;DHT22;1640;48.504;9.224;2022-11-25T08:13:33;3.80;99.90
3256;DHT22;1640;48.504;9.224;2022-11-25T08:16:01;3.90;99.90
3256;DHT22;1640;48.504;9.224;2022-11-25T08:18:29;4.10;99.90
3256;DHT22;1640;48.504;9.224;2022-11-25T08:20:58;4.00;99.90
3256;DHT22;1640;48.504;9.224;2022-11-25T08:23:26;4.10;99.90
3256;DHT22;1640;48.504;9.224;2022-11-25T08:25:55;4.20;99.90
3256;DHT22;1640;48.504;9.224;2022-11-25T08:28:23;4.20;99.90
3256;DHT22;1640;48.504;9.224;2022-11-25T08:30:50;4.20;99.90
3256;DHT22;1640;48.504;9.224;2022-11-25T08:33:18;4.40;99.90
3256;DHT22;1640;48.504;9.224;2022-11-25T08:35:52;4.50;99.90
3256;DHT22;1640;48.504;9.224;2022-11-25T08:38:19;4.50;99.90
3256;DHT22;1640;48.504;9.224;2022-11-25T08:40:47;4.50;99.90
3256;DHT22;1640;48.504;9.224;2022-11-25T08:43:16;4.60;99.90
3256;DHT22;1640;48.504;9.224;2022-11-25T08:45:44;4.70;99.90
3256;DHT22;1640;48.504;9.224;2022-11-25T08:48:12;4.80;99.90
3256;DHT22;1640;48.504;9.224;2022-11-25T08:50:40;4.90;99.90
3256;DHT22;1640;48.504;9.224;2022-11-25T08:53:10;4.90;99.90
3256;DHT22;1640;48.504;9.224;2022-11-25T08:55:37;4.90;99.90
3256;DHT22;1640;48.504;9.224;2022-11-25T08:58:05;5.00;99.90
3256;DHT22;1640;48.504;9.224;2022-11-25T09:00:39;5.10;99.90
3256;DHT22;1640;48.504;9.224;2022-11-25T09:03:08;5.10;99.90
3256;DHT22;1640;48.504;9.224;2022-11-25T09:05:38;5.00;99.90
3256;DHT22;1640;48.504;9.224;2022-11-25T09:08:08;5.10;99.90
3256;DHT22;1640;48.504;9.224;2022-11-25T09:10:37;5.20;99.90
3256;DHT22;1640;48.504;9.224;2022-11-25T09:13:05;5.40;99.90
3256;DHT22;1640;48.504;9.224;2022-11-25T09:15:33;5.50;99.90
3256;DHT22;1640;48.504;9.224;2022-11-25T09:18:03;5.70;99.90
3256;DHT22;1640;48.504;9.224;2022-11-25T09:20:32;5.70;99.90
3256;DHT22;1640;48.504;9.224;2022-11-25T09:23:01;5.80;99.90
3256;DHT22;1640;48.504;9.224;2022-11-25T09:25:29;5.90;99.90
3256;DHT22;1640;48.504;9.224;2022-11-25T09:27:56;6.10;99.90
3256;DHT22;1640;48.504;9.224;2022-11-25T09:30:24;6.20;99.90
3256;DHT22;1640;48.504;9.224;2022-11-25T09:32:54;6.30;99.90
3256;DHT22;1640;48.504;9.224;2022-11-25T09:35:24;6.60;7.50
3256;DHT22;1640;48.504;9.224;2022-11-25T09:37:52;6.80;12.30
3256;DHT22;1640;48.504;9.224;2022-11-25T09:40:29;7.00;9.10
3256;DHT22;1640;48.504;9.224;2022-11-25T09:43:10;7.20;21.10
3256;DHT22;1640;48.504;9.224;2022-11-25T09:46:06;7.50;20.80
3256;DHT22;1640;48.504;9.224;2022-11-25T09:49:02;7.60;40.40
3256;DHT22;1640;48.504;9.224;2022-11-25T09:51:44;7.80;42.50
3256;DHT22;1640;48.504;9.224;2022-11-25T09:54:18;7.90;43.20
3256;DHT22;1640;48.504;9.224;2022-11-25T09:56:50;7.80;42.30
3256;DHT22;1640;48.504;9.224;2022-11-25T09:59:22;7.90;38.80
3256;DHT22;1640;48.504;9.224;2022-11-25T10:01:57;8.20;39.50
3256;DHT22;1640;48.504;9.224;2022-11-25T10:04:28;8.40;45.50
3256;DHT22;1640;48.504;9.224;2022-11-25T10:07:01;8.50;53.70
3256;DHT22;1640;48.504;9.224;2022-11-25T10:09:31;8.50;50.80
3256;DHT22;1640;48.504;9.224;2022-11-25T10:12:03;8.70;54.00
3256;DHT22;1640;48.504;9.224;2022-11-25T10:14:37;9.10;57.70
3256;DHT22;1640;48.504;9.224;2022-11-25T10:17:11;9.40;63.70
3256;DHT22;1640;48.504;9.224;2022-11-25T10:19:51;9.50;66.50
3256;DHT22;1640;48.504;9.224;2022-11-25T10:22:25;9.60;63.70
3256;DHT22;1640;48.504;9.224;2022-11-25T10:24:56;9.70;66.20
3256;DHT22;1640;48.504;9.224;2022-11-25T10:27:27;9.70;66.00
3256;DHT22;1640;48.504;9.224;2022-11-25T10:30:02;9.70;66.60
3256;DHT22;1640;48.504;9.224;2022-11-25T10:32:38;9.60;65.70
3256;DHT22;1640;48.504;9.224;2022-11-25T10:35:16;9.60;65.60
3256;DHT22;1640;48.504;9.224;2022-11-25T10:37:50;9.70;62.70
3256;DHT22;1640;48.504;9.224;2022-11-25T10:40:20;9.60;63.60
3256;DHT22;1640;48.504;9.224;2022-11-25T10:42:48;9.60;61.40
3256;DHT22;1640;48.504;9.224;2022-11-25T10:45:15;9.70;61.70
3256;DHT22;1640;48.504;9.224;2022-11-25T10:47:59;9.70;64.70
3256;DHT22;1640;48.504;9.224;2022-11-25T10:50:36;9.80;62.70
3256;DHT22;1640;48.504;9.224;2022-11-25T10:53:12;9.90;66.00
3256;DHT22;1640;48.504;9.224;2022-11-25T10:55:56;10.10;67.30
3256;DHT22;1640;48.504;9.224;2022-11-25T10:58:31;10.30;68.80
3256;DHT22;1640;48.504;9.224;2022-11-25T11:03:51;10.40;67.80
3256;DHT22;1640;48.504;9.224;2022-11-25T11:06:37;10.50;66.70
3256;DHT22;1640;48.504;9.224;2022-11-25T11:09:28;10.40;66.60
3256;DHT22;1640;48.504;9.224;2022-11-25T11:11:57;10.50;66.00
3256;DHT22;1640;48.504;9.224;2022-11-25T11:14:33;10.60;63.30
3256;DHT22;1640;48.504;9.224;2022-11-25T11:17:01;10.60;69.60
3256;DHT22;1640;48.504;9.224;2022-11-25T11:19:29;10.40;68.60
3256;DHT22;1640;48.504;9.224;2022-11-25T11:22:13;10.10;65.90
3256;DHT22;1640;48.504;9.224;2022-11-25T11:24:42;10.00;62.00
3256;DHT22;1640;48.504;9.224;2022-11-25T11:27:18;9.80;61.30
3256;DHT22;1640;48.504;9.224;2022-11-25T11:29:47;9.80;59.00
3256;DHT22;1640;48.504;9.224;2022-11-25T11:32:22;9.80;54.70
3256;DHT22;1640;48.504;9.224;2022-11-25T11:35:00;9.80;51.30
3256;DHT22;1640;48.504;9.224;2022-11-25T11:37:36;9.60;50.90
3256;DHT22;1640;48.504;9.224;2022-11-25T11:40:21;9.60;50.50
3256;DHT22;1640;48.504;9.224;2022-11-25T11:43:02;9.20;43.20
3256;DHT22;1640;48.504;9.224;2022-11-25T11:45:48;9.30;33.70
3256;DHT22;1640;48.504;9.224;2022-11-25T11:48:24;9.40;35.00
3256;DHT22;1640;48.504;9.224;2022-11-25T11:51:00;9.30;37.60
3256;DHT22;1640;48.504;9.224;2022-11-25T11:53:33;9.20;39.60
3256;DHT22;1640;48.504;9.224;2022-11-25T11:56:10;9.00;30.10
3256;DHT22;1640;48.504;9.224;2022-11-25T11:58:50;9.10;21.20
3256;DHT22;1640;48.504;9.224;2022-11-25T12:01:39;9.30;22.60
3256;DHT22;1640;48.504;9.224;2022-11-25T12:04:14;9.50;29.10
3256;DHT22;1640;48.504;9.224;2022-11-25T12:06:49;9.50;35.60
3256;DHT22;1640;48.504;9.224;2022-11-25T12:09:20;9.40;34.30
3256;DHT22;1640;48.504;9.224;2022-11-25T12:11:53;9.40;35.60
3256;DHT22;1640;48.504;9.224;2022-11-25T12:14:34;9.40;33.00
3256;DHT22;1640;48.504;9.224;2022-11-25T12:17:07;9.50;37.70
3256;DHT22;1640;48.504;9.224;2022-11-25T12:19:43;9.40;37.10
3256;DHT22;1640;48.504;9.224;2022-11-25T12:22:18;9.30;31.50
3256;DHT22;1640;48.504;9.224;2022-11-25T12:24:51;9.30;35.60
3256;DHT22;1640;48.504;9.224;2022-11-25T12:27:24;9.30;30.40
3256;DHT22;1640;48.504;9.224;2022-11-25T12:29:57;9.40;33.10
3256;DHT22;1640;48.504;9.224;2022-11-25T12:33:02;9.30;32.60
3256;DHT22;1640;48.504;9.224;2022-11-25T12:35:40;9.40;31.40
3256;DHT22;1640;48.504;9.224;2022-11-25T12:38:20;9.60;27.90
3256;DHT22;1640;48.504;9.224;2022-11-25T12:40:54;9.70;26.70
3256;DHT22;1640;48.504;9.224;2022-11-25T12:43:32;9.80;27.40
3256;DHT22;1640;48.504;9.224;2022-11-25T12:46:13;9.90;24.40
3256;DHT22;1640;48.504;9.224;2022-11-25T12:48:42;10.00;26.60
3256;DHT22;1640;48.504;9.224;2022-11-25T12:51:19;9.90;28.60
3256;DHT22;1640;48.504;9.224;2022-11-25T12:54:01;10.00;25.70
3256;DHT22;1640;48.504;9.224;2022-11-25T12:56:44;9.90;25.20
3256;DHT22;1640;48.504;9.224;2022-11-25T12:59:34;9.80;24.90
3256;DHT22;1640;48.504;9.224;2022-11-25T13:02:34;9.70;21.80
3256;DHT22;1640;48.504;9.224;2022-11-25T13:05:20;9.70;19.50
3256;DHT22;1640;48.504;9.224;2022-11-25T13:08:02;9.70;18.80
3256;DHT22;1640;48.504;9.224;2022-11-25T13:13:36;9.70;19.20
3256;DHT22;1640;48.504;9.224;2022-11-25T13:16:09;9.70;19.10
3256;DHT22;1640;48.504;9.224;2022-11-25T13:18:40;9.60;13.70
3256;DHT22;1640;48.504;9.224;2022-11-25T13:21:09;9.60;13.60
3256;DHT22;1640;48.504;9.224;2022-11-25T13:23:46;9.60;13.00
3256;DHT22;1640;48.504;9.224;2022-11-25T13:26:36;9.70;13.40
3256;DHT22;1640;48.504;9.224;2022-11-25T13:32:37;9.80;14.20
3256;DHT22;1640;48.504;9.224;2022-11-25T13:35:31;9.90;14.50
3256;DHT22;1640;48.504;9.224;2022-11-25T13:38:05;9.80;12.50
3256;DHT22;1640;48.504;9.224;2022-11-25T13:40:36;9.80;11.00
3256;DHT22;1640;48.504;9.224;2022-11-25T13:43:05;9.70;11.30
3256;DHT22;1640;48.504;9.224;2022-11-25T13:45:46;9.70;7.80
3256;DHT22;1640;48.504;9.224;2022-11-25T13:48:18;9.80;7.60
3256;DHT22;1640;48.504;9.224;2022-11-25T13:50:48;9.70;7.70
3256;DHT22;1640;48.504;9.224;2022-11-25T13:53:21;9.70;3.30
3256;DHT22;1640;48.504;9.224;2022-11-25T13:55:50;9.70;3.40
3256;DHT22;1640;48.504;9.224;2022-11-25T13:58:22;9.70;0.50
3256;DHT22;1640;48.504;9.224;2022-11-25T14:01:04;9.80;99.90
3256;DHT22;1640;48.504;9.224;2022-11-25T14:03:43;9.90;1.10
3256;DHT22;1640;48.504;9.224;2022-11-25T14:06:27;9.90;5.40
3256;DHT22;1640;48.504;9.224;2022-11-25T14:09:02;10.00;6.90
3256;DHT22;1640;48.504;9.224;2022-11-25T14:11:45;10.00;9.40
3256;DHT22;1640;48.504;9.224;2022-11-25T14:14:42;10.10;8.50
3256;DHT22;1640;48.504;9.224;2022-11-25T14:17:26;10.20;12.00
3256;DHT22;1640;48.504;9.224;2022-11-25T14:20:12;10.20;16.10
3256;DHT22;1640;48.504;9.224;2022-11-25T14:25:47;10.20;17.00
3256;DHT22;1640;48.504;9.224;2022-11-25T14:28:23;10.00;13.10
3256;DHT22;1640;48.504;9.224;2022-11-25T14:30:55;9.90;11.30
3256;DHT22;1640;48.504;9.224;2022-11-25T14:33:30;9.90;8.70
3256;DHT22;1640;48.504;9.224;2022-11-25T14:36:04;9.90;7.20
3256;DHT22;1640;48.504;9.224;2022-11-25T14:38:39;10.00;8.90
3256;DHT22;1640;48.504;9.224;2022-11-25T14:41:15;10.00;9.60
3256;DHT22;1640;48.504;9.224;2022-11-25T14:43:46;9.90;6.10
3256;DHT22;1640;48.504;9.224;2022-11-25T14:46:18;9.90;2.10
3256;DHT22;1640;48.504;9.224;2022-11-25T14:48:52;9.90;2.60
3256;DHT22;1640;48.504;9.224;2022-11-25T14:51:22;9.80;1.30
3256;DHT22;1640;48.504;9.224;2022-11-25T14:53:51;9.90;1.50
3256;DHT22;1640;48.504;9.224;2022-11-25T14:56:24;9.80;1.40
3256;DHT22;1640;48.504;9.224;2022-11-25T14:58:53;9.70;99.90
3256;DHT22;1640;48.504;9.224;2022-11-25T15:01:24;9.70;99.90
3256;DHT22;1640;48.504;9.224;2022-11-25T15:04:00;9.70;99.90
3256;DHT22;1640;48.504;9.224;2022-11-25T15:06:32;9.60;99.90
3256;DHT22;1640;48.504;9.224;2022-11-25T15:09:00;9.70;1.00
3256;DHT22;1640;48.504;9.224;2022-11-25T15:11:30;9.60;0.50
3256;DHT22;1640;48.504;9.224;2022-11-25T15:14:00;9.60;8.10
3256;DHT22;1640;48.504;9.224;2022-11-25T15:16:33;9.50;10.10
3256;DHT22;1640;48.504;9.224;2022-11-25T15:19:02;9.40;9.80
3256;DHT22;1640;48.504;9.224;2022-11-25T15:21:33;9.40;8.60
3256;DHT22;1640;48.504;9.224;2022-11-25T15:24:02;9.30;9.80
3256;DHT22;1640;48.504;9.224;2022-11-25T15:26:32;9.30;27.30
3256;DHT22;1640;48.504;9.224;2022-11-25T15:29:03;9.20;28.90
3256;DHT22;1640;48.504;9.224;2022-11-25T15:31:33;9.20;38.10
3256;DHT22;1640;48.504;9.224;2022-11-25T15:34:02;9.20;42.10
3256;DHT22;1640;48.504;9.224;2022-11-25T15:36:32;9.20;51.20
3256;DHT22;1640;48.504;9.224;2022-11-25T15:39:13;9.20;61.60
3256;DHT22;1640;48.504;9.224;2022-11-25T15:41:42;9.20;63.90
3256;DHT22;1640;48.504;9.224;2022-11-25T15:44:21;9.30;66.00
3256;DHT22;1640;48.504;9.224;2022-11-25T15:46:52;9.20;66.00
3256;DHT22;1640;48.504;9.224;2022-11-25T15:49:21;9.20;67.20
3256;DHT22;1640;48.504;9.224;2022-11-25T15:51:54;9.20;67.60
3256;DHT22;1640;48.504;9.224;2022-11-25T15:54:25;9.20;67.20
3256;DHT22;1640;48.504;9.224;2022-11-25T15:56:55;9.10;67.50
3256;DHT22;1640;48.504;9.224;2022-11-25T15:59:45;9.00;66.90
3256;DHT22;1640;48.504;9.224;2022-11-25T16:02:36;8.90;64.60
3256;DHT22;1640;48.504;9.224;2022-11-25T16:05:26;8.90;66.20
3256;DHT22;1640;48.504;9.224;2022-11-25T16:07:59;8.80;65.60
3256;DHT22;1640;48.504;9.224;2022-11-25T16:10:28;8.80;64.70
3256;DHT22;1640;48.504;9.224;2022-11-25T16:13:28;8.80;62.70
3256;DHT22;1640;48.504;9.224;2022-11-25T16:15:59;8.80;62.70
3256;DHT22;1640;48.504;9.224;2022-11-25T16:18:31;8.80;65.50
3256;DHT22;1640;48.504;9.224;2022-11-25T16:21:03;8.80;64.50
3256;DHT22;1640;48.504;9.224;2022-11-25T16:23:34;8.80;64.00
3256;DHT22;1640;48.504;9.224;2022-11-25T16:26:06;8.90;65.90
3256;DHT22;1640;48.504;9.224;2022-11-25T16:28:41;9.00;66.20
3256;DHT22;1640;48.504;9.224;2022-11-25T16:31:14;9.00;66.30
3256;DHT22;1640;48.504;9.224;2022-11-25T16:33:42;9.00;68.20
3256;DHT22;1640;48.504;9.224;2022-11-25T16:36:09;9.00;68.30
3256;DHT22;1640;48.504;9.224;2022-11-25T16:38:38;9.00;68.30
3256;DHT22;1640;48.504;9.224;2022-11-25T16:41:08;8.90;68.00
3256;DHT22;1640;48.504;9.224;2022-11-25T16:43:36;8.80;66.50
3256;DHT22;1640;48.504;9.224;2022-11-25T16:46:05;8.70;64.30
3256;DHT22;1640;48.504;9.224;2022-11-25T16:48:33;8.60;61.10
3256;DHT22;1640;48.504;9.224;2022-11-25T16:51:01;8.60;59.00
3256;DHT22;1640;48.504;9.224;2022-11-25T16:53:28;8.60;57.70
3256;DHT22;1640;48.504;9.224;2022-11-25T16:55:57;8.50;56.10
3256;DHT22;1640;48.504;9.224;2022-11-25T16:58:27;8.50;54.60